sensor_id;sensor_type;location;lat;lon;timestamp;P1;durP1;ratioP1;P2;durP2;ratioP2
27696;SDS011;15105;56.514;21.002;2022-08-25T00:02:15;14.80;;;6.78;;
27696;SDS011;15105;56.514;21.002;2022-08-25T00:04:43;21.75;;;6.68;;
27696;SDS011;15105;56.514;21.002;2022-08-25T00:09:45;19.08;;;6.47;;
27696;SDS011;15105;56.514;21.002;2022-08-25T00:12:13;15.95;;;6.25;;
27696;SDS011;15105;56.514;21.002;2022-08-25T00:14:40;15.73;;;5.70;;
27696;SDS011;15105;56.514;21.002;2022-08-25T00:17:08;20.50;;;6.90;;
27696;SDS011;15105;56.514;21.002;2022-08-25T00:19:36;10.32;;;5.82;;
27696;SDS011;15105;56.514;21.002;2022-08-25T00:22:04;14.68;;;6.45;;
27696;SDS011;15105;56.514;21.002;2022-08-25T00:24:32;21.67;;;6.47;;
27696;SDS011;15105;56.514;21.002;2022-08-25T00:26:59;15.35;;;7.38;;
27696;SDS011;15105;56.514;21.002;2022-08-25T00:29:29;15.98;;;6.82;;
27696;SDS011;15105;56.514;21.002;2022-08-25T00:31:57;17.30;;;6.30;;
27696;SDS011;15105;56.514;21.002;2022-08-25T00:34:26;15.40;;;6.32;;
27696;SDS011;15105;56.514;21.002;2022-08-25T00:36:59;17.50;;;6.45;;
27696;SDS011;15105;56.514;21.002;2022-08-25T00:39:28;15.40;;;6.40;;
27696;SDS011;15105;56.514;21.002;2022-08-25T00:41:56;10.95;;;6.68;;
27696;SDS011;15105;56.514;21.002;2022-08-25T00:44:25;16.75;;;7.03;;
27696;SDS011;15105;56.514;21.002;2022-08-25T00:46:55;15.15;;;6.80;;
27696;SDS011;15105;56.514;21.002;2022-08-25T00:49:25;16.42;;;7.03;;
27696;SDS011;15105;56.514;21.002;2022-08-25T00:52:00;16.30;;;7.35;;
27696;SDS011;15105;56.514;21.002;2022-08-25T00:54:34;19.67;;;7.53;;
27696;SDS011;15105;56.514;21.002;2022-08-25T00:57:10;18.45;;;6.82;;
27696;SDS011;15105;56.514;21.002;2022-08-25T01:00:14;23.58;;;7.00;;
27696;SDS011;15105;56.514;21.002;2022-08-25T01:02:44;17.52;;;7.03;;
27696;SDS011;15105;56.514;21.002;2022-08-25T01:05:12;22.52;;;7.57;;
27696;SDS011;15105;56.514;21.002;2022-08-25T01:07:40;19.95;;;7.85;;
27696;SDS011;15105;56.514;21.002;2022-08-25T01:10:10;23.05;;;7.55;;
27696;SDS011;15105;56.514;21.002;2022-08-25T01:12:38;16.95;;;7.78;;
27696;SDS011;15105;56.514;21.002;2022-08-25T01:15:07;29.80;;;8.10;;
27696;SDS011;15105;56.514;21.002;2022-08-25T01:17:55;19.13;;;8.73;;
27696;SDS011;15105;56.514;21.002;2022-08-25T01:20:26;23.90;;;8.95;;
27696;SDS011;15105;56.514;21.002;2022-08-25T01:22:55;20.02;;;7.63;;
27696;SDS011;15105;56.514;21.002;2022-08-25T01:25:58;17.27;;;8.50;;
27696;SDS011;15105;56.514;21.002;2022-08-25T01:28:27;18.85;;;7.72;;
27696;SDS011;15105;56.514;21.002;2022-08-25T01:30:54;19.60;;;6.90;;
27696;SDS011;15105;56.514;21.002;2022-08-25T01:33:22;23.58;;;7.90;;
27696;SDS011;15105;56.514;21.002;2022-08-25T01:35:49;16.85;;;7.40;;
27696;SDS011;15105;56.514;21.002;2022-08-25T01:38:16;21.15;;;8.13;;
27696;SDS011;15105;56.514;21.002;2022-08-25T01:40:44;23.55;;;7.90;;
27696;SDS011;15105;56.514;21.002;2022-08-25T01:45:43;22.92;;;7.07;;
27696;SDS011;15105;56.514;21.002;2022-08-25T01:48:12;23.15;;;8.30;;
27696;SDS011;15105;56.514;21.002;2022-08-25T01:50:40;18.65;;;7.78;;
27696;SDS011;15105;56.514;21.002;2022-08-25T01:55:53;24.10;;;7.85;;
27696;SDS011;15105;56.514;21.002;2022-08-25T01:58:33;16.73;;;7.40;;
27696;SDS011;15105;56.514;21.002;2022-08-25T02:01:02;18.15;;;7.60;;
27696;SDS011;15105;56.514;21.002;2022-08-25T02:03:35;29.10;;;7.85;;
27696;SDS011;15105;56.514;21.002;2022-08-25T02:06:07;16.75;;;8.10;;
27696;SDS011;15105;56.514;21.002;2022-08-25T02:08:37;21.13;;;7.88;;
27696;SDS011;15105;56.514;21.002;2022-08-25T02:11:04;26.75;;;7.85;;
27696;SDS011;15105;56.514;21.002;2022-08-25T02:13:31;18.73;;;8.13;;
27696;SDS011;15105;56.514;21.002;2022-08-25T02:15:58;20.50;;;7.80;;
27696;SDS011;15105;56.514;21.002;2022-08-25T02:18:27;15.30;;;7.30;;
27696;SDS011;15105;56.514;21.002;2022-08-25T02:20:54;19.10;;;7.85;;
27696;SDS011;15105;56.514;21.002;2022-08-25T02:23:21;18.35;;;7.80;;
27696;SDS011;15105;56.514;21.002;2022-08-25T02:25:48;21.92;;;7.93;;
27696;SDS011;15105;56.514;21.002;2022-08-25T02:28:15;22.17;;;7.95;;
27696;SDS011;15105;56.514;21.002;2022-08-25T02:30:43;19.77;;;7.97;;
27696;SDS011;15105;56.514;21.002;2022-08-25T02:33:14;18.85;;;8.73;;
27696;SDS011;15105;56.514;21.002;2022-08-25T02:35:41;14.38;;;8.27;;
27696;SDS011;15105;56.514;21.002;2022-08-25T02:38:08;24.60;;;8.93;;
27696;SDS011;15105;56.514;21.002;2022-08-25T02:40:38;17.95;;;8.68;;
27696;SDS011;15105;56.514;21.002;2022-08-25T02:43:05;18.08;;;8.13;;
27696;SDS011;15105;56.514;21.002;2022-08-25T02:45:32;15.25;;;8.00;;
27696;SDS011;15105;56.514;21.002;2022-08-25T02:47:59;21.38;;;8.60;;
27696;SDS011;15105;56.514;21.002;2022-08-25T02:50:27;23.10;;;8.57;;
27696;SDS011;15105;56.514;21.002;2022-08-25T02:52:54;17.67;;;8.70;;
27696;SDS011;15105;56.514;21.002;2022-08-25T02:55:21;15.50;;;7.30;;
27696;SDS011;15105;56.514;21.002;2022-08-25T02:57:49;20.33;;;8.40;;
27696;SDS011;15105;56.514;21.002;2022-08-25T03:00:16;14.32;;;7.50;;
27696;SDS011;15105;56.514;21.002;2022-08-25T03:02:44;15.73;;;7.20;;
27696;SDS011;15105;56.514;21.002;2022-08-25T03:05:12;20.83;;;7.47;;
27696;SDS011;15105;56.514;21.002;2022-08-25T03:07:40;11.98;;;7.03;;
27696;SDS011;15105;56.514;21.002;2022-08-25T03:10:08;14.88;;;7.22;;
27696;SDS011;15105;56.514;21.002;2022-08-25T03:12:38;15.68;;;7.80;;
27696;SDS011;15105;56.514;21.002;2022-08-25T03:15:11;16.38;;;6.97;;
27696;SDS011;15105;56.514;21.002;2022-08-25T03:17:42;18.58;;;6.80;;
27696;SDS011;15105;56.514;21.002;2022-08-25T03:20:17;19.63;;;7.30;;
27696;SDS011;15105;56.514;21.002;2022-08-25T03:22:44;17.60;;;6.32;;
27696;SDS011;15105;56.514;21.002;2022-08-25T03:25:11;13.13;;;6.47;;
27696;SDS011;15105;56.514;21.002;2022-08-25T03:27:57;15.27;;;6.68;;
27696;SDS011;15105;56.514;21.002;2022-08-25T03:30:25;12.88;;;6.38;;
27696;SDS011;15105;56.514;21.002;2022-08-25T03:32:52;13.18;;;6.63;;
27696;SDS011;15105;56.514;21.002;2022-08-25T03:35:20;11.85;;;6.00;;
27696;SDS011;15105;56.514;21.002;2022-08-25T03:37:48;13.77;;;6.20;;
27696;SDS011;15105;56.514;21.002;2022-08-25T03:40:16;15.05;;;6.38;;
27696;SDS011;15105;56.514;21.002;2022-08-25T03:42:44;19.83;;;6.40;;
27696;SDS011;15105;56.514;21.002;2022-08-25T03:45:16;11.40;;;5.95;;
27696;SDS011;15105;56.514;21.002;2022-08-25T03:47:47;15.95;;;6.30;;
27696;SDS011;15105;56.514;21.002;2022-08-25T03:50:22;18.25;;;6.10;;
27696;SDS011;15105;56.514;21.002;2022-08-25T03:52:51;12.68;;;5.85;;
27696;SDS011;15105;56.514;21.002;2022-08-25T03:55:20;16.95;;;6.93;;
27696;SDS011;15105;56.514;21.002;2022-08-25T03:57:48;13.75;;;6.25;;
27696;SDS011;15105;56.514;21.002;2022-08-25T04:00:16;13.50;;;6.13;;
27696;SDS011;15105;56.514;21.002;2022-08-25T04:02:44;19.40;;;6.95;;
27696;SDS011;15105;56.514;21.002;2022-08-25T04:05:18;10.20;;;6.50;;
27696;SDS011;15105;56.514;21.002;2022-08-25T04:07:45;14.02;;;6.47;;
27696;SDS011;15105;56.514;21.002;2022-08-25T04:10:16;16.88;;;6.30;;
27696;SDS011;15105;56.514;21.002;2022-08-25T04:12:43;17.30;;;6.10;;
27696;SDS011;15105;56.514;21.002;2022-08-25T04:15:10;12.45;;;6.47;;
27696;SDS011;15105;56.514;21.002;2022-08-25T04:17:37;16.85;;;5.95;;
27696;SDS011;15105;56.514;21.002;2022-08-25T04:20:07;16.00;;;6.20;;
27696;SDS011;15105;56.514;21.002;2022-08-25T04:22:42;13.23;;;6.22;;
27696;SDS011;15105;56.514;21.002;2022-08-25T04:25:17;12.75;;;5.45;;
27696;SDS011;15105;56.514;21.002;2022-08-25T04:27:44;11.23;;;5.63;;
27696;SDS011;15105;56.514;21.002;2022-08-25T04:30:11;10.27;;;6.22;;
27696;SDS011;15105;56.514;21.002;2022-08-25T04:32:38;13.45;;;6.03;;
27696;SDS011;15105;56.514;21.002;2022-08-25T04:35:05;14.65;;;5.70;;
27696;SDS011;15105;56.514;21.002;2022-08-25T04:37:33;15.45;;;6.32;;
27696;SDS011;15105;56.514;21.002;2022-08-25T04:40:00;14.48;;;6.00;;
27696;SDS011;15105;56.514;21.002;2022-08-25T04:42:28;8.80;;;5.63;;
27696;SDS011;15105;56.514;21.002;2022-08-25T04:44:55;16.70;;;6.28;;
27696;SDS011;15105;56.514;21.002;2022-08-25T04:47:22;9.38;;;5.53;;
27696;SDS011;15105;56.514;21.002;2022-08-25T04:49:49;14.00;;;6.15;;
27696;SDS011;15105;56.514;21.002;2022-08-25T04:52:17;14.45;;;6.13;;
27696;SDS011;15105;56.514;21.002;2022-08-25T04:54:44;14.07;;;6.70;;
27696;SDS011;15105;56.514;21.002;2022-08-25T04:57:11;14.73;;;6.70;;
27696;SDS011;15105;56.514;21.002;2022-08-25T04:59:38;11.00;;;5.35;;
27696;SDS011;15105;56.514;21.002;2022-08-25T05:02:06;15.50;;;5.50;;
27696;SDS011;15105;56.514;21.002;2022-08-25T05:04:34;24.50;;;6.38;;
27696;SDS011;15105;56.514;21.002;2022-08-25T05:07:02;14.10;;;5.70;;
27696;SDS011;15105;56.514;21.002;2022-08-25T05:09:32;13.77;;;6.57;;
27696;SDS011;15105;56.514;21.002;2022-08-25T05:12:00;11.95;;;5.90;;
27696;SDS011;15105;56.514;21.002;2022-08-25T05:14:28;16.13;;;6.65;;
27696;SDS011;15105;56.514;21.002;2022-08-25T05:16:57;15.88;;;5.63;;
27696;SDS011;15105;56.514;21.002;2022-08-25T05:19:24;16.25;;;6.25;;
27696;SDS011;15105;56.514;21.002;2022-08-25T05:21:51;8.85;;;5.25;;
27696;SDS011;15105;56.514;21.002;2022-08-25T05:24:19;8.45;;;5.28;;
27696;SDS011;15105;56.514;21.002;2022-08-25T05:26:47;11.27;;;5.72;;
27696;SDS011;15105;56.514;21.002;2022-08-25T05:29:14;14.43;;;6.03;;
27696;SDS011;15105;56.514;21.002;2022-08-25T05:31:41;12.68;;;5.35;;
27696;SDS011;15105;56.514;21.002;2022-08-25T05:34:15;13.93;;;5.50;;
27696;SDS011;15105;56.514;21.002;2022-08-25T05:36:46;16.27;;;5.57;;
27696;SDS011;15105;56.514;21.002;2022-08-25T05:39:14;12.73;;;5.30;;
27696;SDS011;15105;56.514;21.002;2022-08-25T05:41:41;12.25;;;5.45;;
27696;SDS011;15105;56.514;21.002;2022-08-25T05:44:08;9.70;;;5.00;;
27696;SDS011;15105;56.514;21.002;2022-08-25T05:46:35;9.13;;;4.45;;
27696;SDS011;15105;56.514;21.002;2022-08-25T05:49:02;8.82;;;5.10;;
27696;SDS011;15105;56.514;21.002;2022-08-25T05:51:29;9.90;;;4.63;;
27696;SDS011;15105;56.514;21.002;2022-08-25T05:53:57;9.43;;;4.28;;
27696;SDS011;15105;56.514;21.002;2022-08-25T05:56:24;10.13;;;4.43;;
27696;SDS011;15105;56.514;21.002;2022-08-25T05:58:51;7.43;;;4.45;;
27696;SDS011;15105;56.514;21.002;2022-08-25T06:01:32;8.82;;;4.57;;
27696;SDS011;15105;56.514;21.002;2022-08-25T06:04:19;13.35;;;4.75;;
27696;SDS011;15105;56.514;21.002;2022-08-25T06:06:47;13.02;;;5.57;;
27696;SDS011;15105;56.514;21.002;2022-08-25T06:09:19;8.95;;;5.10;;
27696;SDS011;15105;56.514;21.002;2022-08-25T06:11:47;13.80;;;5.30;;
27696;SDS011;15105;56.514;21.002;2022-08-25T06:14:20;11.40;;;5.32;;
27696;SDS011;15105;56.514;21.002;2022-08-25T06:16:47;9.93;;;4.82;;
27696;SDS011;15105;56.514;21.002;2022-08-25T06:19:17;10.88;;;5.10;;
27696;SDS011;15105;56.514;21.002;2022-08-25T06:21:44;8.13;;;5.28;;
27696;SDS011;15105;56.514;21.002;2022-08-25T06:24:11;11.82;;;4.85;;
27696;SDS011;15105;56.514;21.002;2022-08-25T06:26:41;9.50;;;5.15;;
27696;SDS011;15105;56.514;21.002;2022-08-25T06:29:09;9.05;;;5.40;;
27696;SDS011;15105;56.514;21.002;2022-08-25T06:31:37;14.27;;;5.95;;
27696;SDS011;15105;56.514;21.002;2022-08-25T06:34:04;12.35;;;5.70;;
27696;SDS011;15105;56.514;21.002;2022-08-25T06:36:31;11.02;;;5.75;;
27696;SDS011;15105;56.514;21.002;2022-08-25T06:38:59;10.65;;;5.68;;
27696;SDS011;15105;56.514;21.002;2022-08-25T06:41:27;8.93;;;5.32;;
27696;SDS011;15105;56.514;21.002;2022-08-25T06:44:02;14.10;;;5.10;;
27696;SDS011;15105;56.514;21.002;2022-08-25T06:46:30;12.27;;;5.13;;
27696;SDS011;15105;56.514;21.002;2022-08-25T06:49:02;13.18;;;5.30;;
27696;SDS011;15105;56.514;21.002;2022-08-25T06:51:33;10.30;;;4.63;;
27696;SDS011;15105;56.514;21.002;2022-08-25T06:54:02;13.68;;;5.38;;
27696;SDS011;15105;56.514;21.002;2022-08-25T06:56:30;11.95;;;5.20;;
27696;SDS011;15105;56.514;21.002;2022-08-25T06:58:59;10.02;;;5.47;;
27696;SDS011;15105;56.514;21.002;2022-08-25T07:01:27;9.07;;;5.65;;
27696;SDS011;15105;56.514;21.002;2022-08-25T07:03:58;10.95;;;5.10;;
27696;SDS011;15105;56.514;21.002;2022-08-25T07:06:31;11.05;;;5.50;;
27696;SDS011;15105;56.514;21.002;2022-08-25T07:09:04;14.65;;;5.40;;
27696;SDS011;15105;56.514;21.002;2022-08-25T07:11:33;8.20;;;5.38;;
27696;SDS011;15105;56.514;21.002;2022-08-25T07:14:02;11.45;;;5.22;;
27696;SDS011;15105;56.514;21.002;2022-08-25T07:16:30;9.43;;;5.00;;
27696;SDS011;15105;56.514;21.002;2022-08-25T07:18:58;8.70;;;5.07;;
27696;SDS011;15105;56.514;21.002;2022-08-25T07:21:27;8.60;;;5.30;;
27696;SDS011;15105;56.514;21.002;2022-08-25T07:23:59;10.75;;;4.95;;
27696;SDS011;15105;56.514;21.002;2022-08-25T07:26:28;11.75;;;5.03;;
27696;SDS011;15105;56.514;21.002;2022-08-25T07:29:06;8.73;;;5.15;;
27696;SDS011;15105;56.514;21.002;2022-08-25T07:31:38;11.65;;;5.43;;
27696;SDS011;15105;56.514;21.002;2022-08-25T07:34:06;13.23;;;4.93;;
27696;SDS011;15105;56.514;21.002;2022-08-25T07:36:54;10.75;;;5.03;;
27696;SDS011;15105;56.514;21.002;2022-08-25T07:39:22;9.02;;;4.53;;
27696;SDS011;15105;56.514;21.002;2022-08-25T07:41:50;6.75;;;4.80;;
27696;SDS011;15105;56.514;21.002;2022-08-25T07:44:18;10.23;;;4.45;;
27696;SDS011;15105;56.514;21.002;2022-08-25T07:46:48;8.73;;;4.38;;
27696;SDS011;15105;56.514;21.002;2022-08-25T07:49:19;9.45;;;4.20;;
27696;SDS011;15105;56.514;21.002;2022-08-25T07:51:48;9.18;;;4.60;;
27696;SDS011;15105;56.514;21.002;2022-08-25T07:54:32;11.70;;;4.80;;
27696;SDS011;15105;56.514;21.002;2022-08-25T07:57:04;11.10;;;4.85;;
27696;SDS011;15105;56.514;21.002;2022-08-25T07:59:33;8.65;;;4.47;;
27696;SDS011;15105;56.514;21.002;2022-08-25T08:02:09;13.60;;;7.28;;
27696;SDS011;15105;56.514;21.002;2022-08-25T08:04:45;11.73;;;4.22;;
27696;SDS011;15105;56.514;21.002;2022-08-25T08:07:16;13.45;;;4.68;;
27696;SDS011;15105;56.514;21.002;2022-08-25T08:09:48;12.10;;;4.25;;
27696;SDS011;15105;56.514;21.002;2022-08-25T08:12:36;12.07;;;4.78;;
27696;SDS011;15105;56.514;21.002;2022-08-25T08:15:05;9.38;;;4.00;;
27696;SDS011;15105;56.514;21.002;2022-08-25T08:17:52;8.57;;;3.70;;
27696;SDS011;15105;56.514;21.002;2022-08-25T08:20:19;9.02;;;4.20;;
27696;SDS011;15105;56.514;21.002;2022-08-25T08:22:48;10.57;;;3.72;;
27696;SDS011;15105;56.514;21.002;2022-08-25T08:25:16;10.70;;;3.90;;
27696;SDS011;15105;56.514;21.002;2022-08-25T08:27:46;8.05;;;3.80;;
27696;SDS011;15105;56.514;21.002;2022-08-25T08:30:15;6.72;;;3.35;;
27696;SDS011;15105;56.514;21.002;2022-08-25T08:32:42;11.10;;;4.00;;
27696;SDS011;15105;56.514;21.002;2022-08-25T08:35:29;9.27;;;3.80;;
27696;SDS011;15105;56.514;21.002;2022-08-25T08:37:56;12.38;;;3.85;;
27696;SDS011;15105;56.514;21.002;2022-08-25T08:40:23;11.48;;;3.95;;
27696;SDS011;15105;56.514;21.002;2022-08-25T08:45:52;8.07;;;3.78;;
27696;SDS011;15105;56.514;21.002;2022-08-25T08:51:21;11.48;;;3.97;;
27696;SDS011;15105;56.514;21.002;2022-08-25T08:56:46;12.45;;;5.65;;
27696;SDS011;15105;56.514;21.002;2022-08-25T08:59:16;6.70;;;3.85;;
27696;SDS011;15105;56.514;21.002;2022-08-25T09:01:48;13.38;;;3.90;;
27696;SDS011;15105;56.514;21.002;2022-08-25T09:06:55;9.27;;;3.53;;
27696;SDS011;15105;56.514;21.002;2022-08-25T09:09:30;10.18;;;4.10;;
27696;SDS011;15105;56.514;21.002;2022-08-25T09:27:04;10.93;;;4.20;;
27696;SDS011;15105;56.514;21.002;2022-08-25T09:32:50;14.15;;;4.10;;
27696;SDS011;15105;56.514;21.002;2022-08-25T09:35:30;11.38;;;4.13;;
27696;SDS011;15105;56.514;21.002;2022-08-25T09:38:01;20.90;;;4.40;;
27696;SDS011;15105;56.514;21.002;2022-08-25T09:40:36;12.93;;;3.73;;
27696;SDS011;15105;56.514;21.002;2022-08-25T09:43:18;6.90;;;3.78;;
27696;SDS011;15105;56.514;21.002;2022-08-25T09:45:56;12.10;;;3.85;;
27696;SDS011;15105;56.514;21.002;2022-08-25T09:56:48;9.25;;;4.00;;
27696;SDS011;15105;56.514;21.002;2022-08-25T10:02:02;11.35;;;3.83;;
27696;SDS011;15105;56.514;21.002;2022-08-25T10:04:33;10.75;;;3.65;;
27696;SDS011;15105;56.514;21.002;2022-08-25T10:07:03;12.13;;;3.28;;
27696;SDS011;15105;56.514;21.002;2022-08-25T10:09:56;9.50;;;3.20;;
27696;SDS011;15105;56.514;21.002;2022-08-25T10:15:18;13.00;;;4.07;;
27696;SDS011;15105;56.514;21.002;2022-08-25T10:17:56;8.73;;;3.42;;
27696;SDS011;15105;56.514;21.002;2022-08-25T10:21:06;9.88;;;3.78;;
27696;SDS011;15105;56.514;21.002;2022-08-25T10:23:48;15.25;;;4.30;;
27696;SDS011;15105;56.514;21.002;2022-08-25T10:26:29;17.52;;;4.25;;
27696;SDS011;15105;56.514;21.002;2022-08-25T10:29:24;14.40;;;3.90;;
27696;SDS011;15105;56.514;21.002;2022-08-25T10:35:05;9.95;;;3.20;;
27696;SDS011;15105;56.514;21.002;2022-08-25T10:40:46;20.30;;;4.30;;
27696;SDS011;15105;56.514;21.002;2022-08-25T10:46:15;12.60;;;4.18;;
27696;SDS011;15105;56.514;21.002;2022-08-25T10:49:05;15.43;;;4.28;;
27696;SDS011;15105;56.514;21.002;2022-08-25T10:51:46;9.93;;;3.33;;
27696;SDS011;15105;56.514;21.002;2022-08-25T10:56:53;10.80;;;3.60;;
27696;SDS011;15105;56.514;21.002;2022-08-25T11:02:34;16.63;;;4.70;;
27696;SDS011;15105;56.514;21.002;2022-08-25T11:05:29;13.40;;;3.90;;
27696;SDS011;15105;56.514;21.002;2022-08-25T11:08:11;10.88;;;3.70;;
27696;SDS011;15105;56.514;21.002;2022-08-25T11:11:01;15.88;;;3.90;;
27696;SDS011;15105;56.514;21.002;2022-08-25T11:13:42;13.27;;;3.60;;
27696;SDS011;15105;56.514;21.002;2022-08-25T11:16:40;17.77;;;3.58;;
27696;SDS011;15105;56.514;21.002;2022-08-25T11:19:19;10.73;;;3.90;;
27696;SDS011;15105;56.514;21.002;2022-08-25T11:24:31;10.27;;;3.47;;
27696;SDS011;15105;56.514;21.002;2022-08-25T11:27:10;22.27;;;5.05;;
27696;SDS011;15105;56.514;21.002;2022-08-25T11:30:03;14.55;;;3.45;;
27696;SDS011;15105;56.514;21.002;2022-08-25T11:35:05;17.27;;;3.55;;
27696;SDS011;15105;56.514;21.002;2022-08-25T11:37:40;17.30;;;3.60;;
27696;SDS011;15105;56.514;21.002;2022-08-25T11:40:19;14.68;;;3.47;;
27696;SDS011;15105;56.514;21.002;2022-08-25T11:43:04;7.32;;;3.70;;
27696;SDS011;15105;56.514;21.002;2022-08-25T11:51:03;18.15;;;3.65;;
27696;SDS011;15105;56.514;21.002;2022-08-25T11:53:41;14.38;;;3.70;;
27696;SDS011;15105;56.514;21.002;2022-08-25T11:56:11;18.98;;;3.22;;
27696;SDS011;15105;56.514;21.002;2022-08-25T11:59:00;13.02;;;3.72;;
27696;SDS011;15105;56.514;21.002;2022-08-25T12:04:14;18.67;;;3.38;;
27696;SDS011;15105;56.514;21.002;2022-08-25T12:09:32;15.85;;;2.72;;
27696;SDS011;15105;56.514;21.002;2022-08-25T12:12:55;16.58;;;2.92;;
27696;SDS011;15105;56.514;21.002;2022-08-25T12:15:33;12.52;;;2.53;;
27696;SDS011;15105;56.514;21.002;2022-08-25T12:28:39;8.95;;;2.35;;
27696;SDS011;15105;56.514;21.002;2022-08-25T12:31:20;12.05;;;2.67;;
27696;SDS011;15105;56.514;21.002;2022-08-25T12:34:15;6.13;;;2.20;;
27696;SDS011;15105;56.514;21.002;2022-08-25T12:37:04;5.78;;;2.53;;
27696;SDS011;15105;56.514;21.002;2022-08-25T12:39:42;7.05;;;2.70;;
27696;SDS011;15105;56.514;21.002;2022-08-25T12:47:53;9.50;;;2.40;;
27696;SDS011;15105;56.514;21.002;2022-08-25T12:50:25;9.48;;;2.97;;
27696;SDS011;15105;56.514;21.002;2022-08-25T12:53:09;10.27;;;3.45;;
27696;SDS011;15105;56.514;21.002;2022-08-25T12:55:42;8.98;;;3.05;;
27696;SDS011;15105;56.514;21.002;2022-08-25T12:58:13;13.18;;;3.22;;
27696;SDS011;15105;56.514;21.002;2022-08-25T13:12:01;10.75;;;2.40;;
27696;SDS011;15105;56.514;21.002;2022-08-25T13:14:49;21.63;;;2.72;;
27696;SDS011;15105;56.514;21.002;2022-08-25T13:17:32;20.25;;;2.67;;
27696;SDS011;15105;56.514;21.002;2022-08-25T13:23:03;7.90;;;2.20;;
27696;SDS011;15105;56.514;21.002;2022-08-25T13:25:30;23.55;;;2.92;;
27696;SDS011;15105;56.514;21.002;2022-08-25T13:28:03;19.08;;;3.17;;
27696;SDS011;15105;56.514;21.002;2022-08-25T13:31:06;19.95;;;2.40;;
27696;SDS011;15105;56.514;21.002;2022-08-25T13:33:48;15.60;;;3.17;;
27696;SDS011;15105;56.514;21.002;2022-08-25T13:36:19;14.63;;;2.60;;
27696;SDS011;15105;56.514;21.002;2022-08-25T13:39:18;9.80;;;2.42;;
27696;SDS011;15105;56.514;21.002;2022-08-25T13:42:15;17.60;;;2.38;;
27696;SDS011;15105;56.514;21.002;2022-08-25T13:44:43;8.20;;;2.38;;
27696;SDS011;15105;56.514;21.002;2022-08-25T13:47:37;14.20;;;2.30;;
27696;SDS011;15105;56.514;21.002;2022-08-25T13:58:20;18.67;;;2.78;;
27696;SDS011;15105;56.514;21.002;2022-08-25T14:01:12;18.30;;;2.50;;
27696;SDS011;15105;56.514;21.002;2022-08-25T14:09:49;11.30;;;2.17;;
27696;SDS011;15105;56.514;21.002;2022-08-25T14:18:26;22.98;;;2.40;;
27696;SDS011;15105;56.514;21.002;2022-08-25T14:20:33;12.27;;;2.03;;
27696;SDS011;15105;56.514;21.002;2022-08-25T14:23:35;12.07;;;2.22;;
27696;SDS011;15105;56.514;21.002;2022-08-25T14:25:56;13.50;;;2.05;;
27696;SDS011;15105;56.514;21.002;2022-08-25T14:28:25;14.68;;;2.25;;
27696;SDS011;15105;56.514;21.002;2022-08-25T14:30:55;23.17;;;2.72;;
27696;SDS011;15105;56.514;21.002;2022-08-25T14:33:27;17.27;;;2.28;;
27696;SDS011;15105;56.514;21.002;2022-08-25T14:35:58;24.15;;;2.78;;
27696;SDS011;15105;56.514;21.002;2022-08-25T14:38:28;20.55;;;2.42;;
27696;SDS011;15105;56.514;21.002;2022-08-25T14:40:55;12.88;;;2.30;;
27696;SDS011;15105;56.514;21.002;2022-08-25T14:43:24;12.77;;;2.05;;
27696;SDS011;15105;56.514;21.002;2022-08-25T14:45:57;8.32;;;1.88;;
27696;SDS011;15105;56.514;21.002;2022-08-25T14:48:41;12.10;;;2.42;;
27696;SDS011;15105;56.514;21.002;2022-08-25T14:51:11;17.17;;;2.40;;
27696;SDS011;15105;56.514;21.002;2022-08-25T14:53:40;13.43;;;2.47;;
27696;SDS011;15105;56.514;21.002;2022-08-25T14:56:08;13.20;;;2.03;;
27696;SDS011;15105;56.514;21.002;2022-08-25T14:58:40;10.73;;;1.92;;
27696;SDS011;15105;56.514;21.002;2022-08-25T15:01:14;13.02;;;2.38;;
27696;SDS011;15105;56.514;21.002;2022-08-25T15:03:46;21.45;;;2.53;;
27696;SDS011;15105;56.514;21.002;2022-08-25T15:06:16;14.15;;;2.25;;
27696;SDS011;15105;56.514;21.002;2022-08-25T15:08:43;12.95;;;1.83;;
27696;SDS011;15105;56.514;21.002;2022-08-25T15:11:29;26.20;;;2.53;;
27696;SDS011;15105;56.514;21.002;2022-08-25T15:14:00;14.27;;;2.10;;
27696;SDS011;15105;56.514;21.002;2022-08-25T15:19:00;17.33;;;2.10;;
27696;SDS011;15105;56.514;21.002;2022-08-25T15:21:32;12.23;;;2.08;;
27696;SDS011;15105;56.514;21.002;2022-08-25T15:24:01;8.85;;;2.10;;
27696;SDS011;15105;56.514;21.002;2022-08-25T15:26:30;5.03;;;1.80;;
27696;SDS011;15105;56.514;21.002;2022-08-25T15:28:59;15.43;;;1.90;;
27696;SDS011;15105;56.514;21.002;2022-08-25T15:31:26;7.68;;;1.83;;
27696;SDS011;15105;56.514;21.002;2022-08-25T15:33:53;11.15;;;2.20;;
27696;SDS011;15105;56.514;21.002;2022-08-25T15:36:21;14.43;;;2.22;;
27696;SDS011;15105;56.514;21.002;2022-08-25T15:38:50;5.28;;;1.70;;
27696;SDS011;15105;56.514;21.002;2022-08-25T15:41:18;9.85;;;2.13;;
27696;SDS011;15105;56.514;21.002;2022-08-25T15:43:53;8.70;;;1.85;;
27696;SDS011;15105;56.514;21.002;2022-08-25T15:46:25;10.02;;;1.88;;
27696;SDS011;15105;56.514;21.002;2022-08-25T15:48:55;14.88;;;2.35;;
27696;SDS011;15105;56.514;21.002;2022-08-25T15:51:23;8.63;;;2.13;;
27696;SDS011;15105;56.514;21.002;2022-08-25T15:53:52;5.32;;;1.73;;
27696;SDS011;15105;56.514;21.002;2022-08-25T15:56:19;6.75;;;1.75;;
27696;SDS011;15105;56.514;21.002;2022-08-25T15:58:52;16.08;;;2.85;;
27696;SDS011;15105;56.514;21.002;2022-08-25T16:01:24;17.98;;;2.47;;
27696;SDS011;15105;56.514;21.002;2022-08-25T16:03:55;5.97;;;2.30;;
27696;SDS011;15105;56.514;21.002;2022-08-25T16:06:23;17.95;;;2.22;;
27696;SDS011;15105;56.514;21.002;2022-08-25T16:08:51;10.30;;;2.10;;
27696;SDS011;15105;56.514;21.002;2022-08-25T16:11:25;5.22;;;1.95;;
27696;SDS011;15105;56.514;21.002;2022-08-25T16:13:55;6.40;;;1.80;;
27696;SDS011;15105;56.514;21.002;2022-08-25T16:16:23;6.35;;;2.10;;
27696;SDS011;15105;56.514;21.002;2022-08-25T16:18:52;4.93;;;1.73;;
27696;SDS011;15105;56.514;21.002;2022-08-25T16:21:21;10.25;;;3.05;;
27696;SDS011;15105;56.514;21.002;2022-08-25T16:23:56;5.32;;;1.95;;
27696;SDS011;15105;56.514;21.002;2022-08-25T16:26:28;9.05;;;2.00;;
27696;SDS011;15105;56.514;21.002;2022-08-25T16:28:56;6.22;;;2.13;;
27696;SDS011;15105;56.514;21.002;2022-08-25T16:31:23;10.23;;;3.80;;
27696;SDS011;15105;56.514;21.002;2022-08-25T16:33:51;11.65;;;5.38;;
27696;SDS011;15105;56.514;21.002;2022-08-25T16:36:24;12.70;;;7.85;;
27696;SDS011;15105;56.514;21.002;2022-08-25T16:38:54;14.57;;;6.40;;
27696;SDS011;15105;56.514;21.002;2022-08-25T16:41:25;8.35;;;4.03;;
27696;SDS011;15105;56.514;21.002;2022-08-25T16:44:01;10.63;;;4.00;;
27696;SDS011;15105;56.514;21.002;2022-08-25T16:46:53;11.02;;;4.57;;
27696;SDS011;15105;56.514;21.002;2022-08-25T16:49:21;13.70;;;5.07;;
27696;SDS011;15105;56.514;21.002;2022-08-25T16:51:49;14.80;;;6.78;;
27696;SDS011;15105;56.514;21.002;2022-08-25T16:54:23;11.77;;;6.25;;
27696;SDS011;15105;56.514;21.002;2022-08-25T16:57:11;19.58;;;6.78;;
27696;SDS011;15105;56.514;21.002;2022-08-25T16:59:38;13.07;;;6.43;;
27696;SDS011;15105;56.514;21.002;2022-08-25T17:02:05;11.35;;;5.65;;
27696;SDS011;15105;56.514;21.002;2022-08-25T17:04:32;10.65;;;5.43;;
27696;SDS011;15105;56.514;21.002;2022-08-25T17:07:00;10.85;;;4.40;;
27696;SDS011;15105;56.514;21.002;2022-08-25T17:09:27;14.73;;;3.10;;